createdAt,value
2018-10-21T00:00:48.362Z,80.63
2018-10-21T00:01:48.340Z,80.63
2018-10-21T00:02:48.330Z,80.42
2018-10-21T00:03:48.402Z,80.38
2018-10-21T00:04:48.309Z,79.77
2018-10-21T00:05:48.297Z,79.56
2018-10-21T00:06:48.568Z,79.87
2018-10-21T00:07:48.299Z,79.46
2018-10-21T00:08:48.260Z,79.77
2018-10-21T00:09:48.308Z,79.46
2018-10-21T00:10:48.239Z,80.18
2018-10-21T00:11:48.242Z,80.04
2018-10-21T00:12:48.220Z,79.63
2018-10-21T00:13:48.497Z,79.49
2018-10-21T00:14:48.211Z,78.81
2018-10-21T00:15:48.248Z,78.81
2018-10-21T00:16:48.180Z,78.67
2018-10-21T00:17:48.163Z,77.84
2018-10-21T00:18:48.156Z,77.95
2018-10-21T00:19:48.293Z,77.74
2018-10-21T00:20:48.552Z,77.84
2018-10-21T00:21:48.199Z,78.25
2018-10-21T00:22:48.250Z,78.46
2018-10-21T00:23:49.166Z,78.70
2018-10-21T00:24:48.227Z,78.91
2018-10-21T00:25:48.079Z,79.83
2018-10-21T00:26:48.065Z,79.42
2018-10-21T00:27:48.581Z,79.32
2018-10-21T00:28:48.047Z,79.22
2018-10-21T00:29:48.090Z,79.32
2018-10-21T00:30:48.024Z,79.32
2018-10-21T00:31:48.013Z,78.77
2018-10-21T00:32:48.016Z,78.39
2018-10-21T00:33:48.038Z,78.70
2018-10-21T00:34:48.261Z,79.11
2018-10-21T00:35:47.968Z,78.91
2018-10-21T00:36:47.962Z,78.81
2018-10-21T00:37:48.547Z,79.73
2018-10-21T00:38:48.539Z,79.32
2018-10-21T00:39:47.969Z,80.14
2018-10-21T00:40:47.914Z,79.42
2018-10-21T00:41:48.212Z,79.73
2018-10-21T00:42:47.893Z,79.93
2018-10-21T00:43:47.898Z,79.63
2018-10-21T00:44:47.909Z,79.32
2018-10-21T00:45:47.934Z,79.87
2018-10-21T00:46:47.855Z,79.83
2018-10-21T00:47:47.838Z,79.77
2018-10-21T00:48:48.143Z,79.77
2018-10-21T00:49:47.823Z,79.77
2018-10-21T00:50:47.812Z,79.56
2018-10-21T00:51:47.838Z,79.77
2018-10-21T00:52:47.845Z,79.77
2018-10-21T00:53:47.778Z,80.18
2018-10-21T00:54:47.766Z,80.07
2018-10-21T00:55:48.037Z,80.18
2018-10-21T00:56:47.745Z,80.42
2018-10-21T00:57:47.789Z,80.21
2018-10-21T00:58:47.800Z,80.73
2018-10-21T00:59:47.708Z,80.52
2018-10-21T01:00:47.746Z,80.63
2018-10-21T01:01:47.708Z,80.77
2018-10-21T01:02:47.977Z,80.63
2018-10-21T01:03:47.727Z,81.14
2018-10-21T01:04:47.659Z,80.93
2018-10-21T01:05:47.668Z,81.86
2018-10-21T01:06:47.633Z,81.86
2018-10-21T01:07:47.644Z,81.28
2018-10-21T01:08:47.610Z,81.04
2018-10-21T01:09:47.938Z,80.73
2018-10-21T01:10:47.740Z,81.24
2018-10-21T01:11:47.577Z,80.83
2018-10-21T01:12:47.570Z,80.73
2018-10-21T01:13:47.595Z,80.52
2018-10-21T01:14:47.547Z,80.73
2018-10-21T01:15:47.575Z,80.52
2018-10-21T01:16:47.818Z,80.63
2018-10-21T01:17:47.534Z,80.73
2018-10-21T01:18:47.507Z,80.93
2018-10-21T01:19:47.489Z,80.46
2018-10-21T01:20:47.489Z,80.52
2018-10-21T01:21:47.764Z,80.87
2018-10-21T01:22:47.466Z,81.07
2018-10-21T01:23:47.736Z,80.77
2018-10-21T01:24:47.438Z,80.56
2018-10-21T01:25:47.431Z,80.87
2018-10-21T01:26:47.419Z,80.87
2018-10-21T01:27:47.444Z,80.66
2018-10-21T01:28:47.398Z,80.87
2018-10-21T01:29:47.400Z,81.07
2018-10-21T01:30:47.373Z,81.59
2018-10-21T01:31:47.358Z,81.90
2018-10-21T01:32:47.360Z,81.07
2018-10-21T01:33:47.378Z,80.97
2018-10-21T01:34:47.327Z,80.46
2018-10-21T01:35:47.325Z,81.18
2018-10-21T01:36:47.702Z,80.97
2018-10-21T01:37:47.335Z,81.11
2018-10-21T01:38:47.311Z,81.11
2018-10-21T01:39:47.570Z,81.01
2018-10-21T01:40:47.273Z,81.90
2018-10-21T01:41:47.253Z,81.73
2018-10-21T01:42:47.530Z,81.79
2018-10-21T01:43:47.230Z,81.83
2018-10-21T01:44:47.236Z,82.04
2018-10-21T01:45:47.252Z,82.55
2018-10-21T01:46:47.197Z,82.14
2018-10-21T01:47:47.186Z,81.93
2018-10-21T01:48:47.179Z,82.34
2018-10-21T01:49:47.163Z,82.34
2018-10-21T01:50:47.160Z,82.34
2018-10-21T01:51:47.200Z,82.24
2018-10-21T01:52:47.143Z,81.83
2018-10-21T01:53:47.123Z,81.73
2018-10-21T01:54:47.401Z,82.34
2018-10-21T01:55:47.111Z,82.14
2018-10-21T01:56:47.091Z,82.04
2018-10-21T01:57:47.145Z,82.14
2018-10-21T01:58:47.089Z,81.83
2018-10-21T01:59:47.059Z,82.34
2018-10-21T02:02:19.215Z,82.45
2018-10-21T02:03:19.449Z,82.24
2018-10-21T02:04:19.172Z,82.07
2018-10-21T02:05:19.159Z,82.69
2018-10-21T02:06:19.436Z,83.00
2018-10-21T02:07:19.137Z,82.93
2018-10-21T02:08:19.126Z,83.65
2018-10-21T02:09:19.240Z,84.62
2018-10-21T02:10:19.826Z,84.93
2018-10-21T02:11:19.090Z,85.65
2018-10-21T02:12:19.562Z,85.86
2018-10-21T02:13:19.070Z,85.55
2018-10-21T02:14:19.228Z,85.55
2018-10-21T02:15:19.200Z,85.65
2018-10-21T02:16:19.043Z,85.55
2018-10-21T02:17:19.030Z,85.14
2018-10-21T02:18:19.020Z,85.03
2018-10-21T02:19:19.023Z,85.51
2018-10-21T02:20:18.996Z,85.24
2018-10-21T02:21:19.038Z,84.89
2018-10-21T02:22:18.989Z,84.72
2018-10-21T02:23:18.967Z,83.76
2018-10-21T02:24:19.345Z,83.25
2018-10-21T02:25:18.950Z,83.86
2018-10-21T02:26:19.698Z,83.65
2018-10-21T02:27:18.975Z,83.55
2018-10-21T02:28:19.821Z,83.76
2018-10-21T02:29:18.901Z,83.65
2018-10-21T02:30:18.889Z,83.86
2018-10-21T02:31:19.171Z,83.14
2018-10-21T02:32:18.874Z,83.45
2018-10-21T02:33:19.030Z,83.35
2018-10-21T02:34:18.850Z,83.04
2018-10-21T02:35:18.840Z,83.45
2018-10-21T02:36:18.928Z,82.42
2018-10-21T02:37:18.824Z,82.32
2018-10-21T02:38:19.132Z,82.77
2018-10-21T02:39:18.938Z,82.56
2018-10-21T02:40:18.792Z,82.73
2018-10-21T02:41:18.777Z,82.56
2018-10-21T02:42:18.768Z,82.56
2018-10-21T02:43:18.756Z,82.15
2018-10-21T02:44:18.743Z,82.46
2018-10-21T02:45:19.213Z,82.46
2018-10-21T02:46:18.723Z,82.77
2018-10-21T02:47:18.726Z,82.67
2018-10-21T02:48:18.702Z,83.18
2018-10-21T02:49:18.699Z,83.18
2018-10-21T02:50:18.688Z,82.56
2018-10-21T02:51:18.832Z,82.77
2018-10-21T02:52:18.961Z,81.95
2018-10-21T02:53:18.648Z,81.74
2018-10-21T02:54:18.641Z,82.35
2018-10-21T02:55:18.630Z,82.15
2018-10-21T02:56:18.716Z,82.15
2018-10-21T02:57:18.781Z,82.05
2018-10-21T02:58:18.669Z,82.35
2018-10-21T02:59:19.089Z,82.40
2018-10-21T03:00:18.661Z,82.46
2018-10-21T03:01:18.618Z,82.50
2018-10-21T03:02:18.673Z,82.60
2018-10-21T03:03:18.777Z,82.05
2018-10-21T03:04:18.537Z,82.19
2018-10-21T03:05:18.524Z,82.56
2018-10-21T03:06:18.844Z,82.09
2018-10-21T03:07:18.504Z,82.05
2018-10-21T03:08:18.491Z,82.15
2018-10-21T03:09:18.622Z,82.05
2018-10-21T03:10:18.469Z,82.09
2018-10-21T03:11:18.461Z,82.09
2018-10-21T03:12:18.460Z,82.19
2018-10-21T03:13:18.755Z,82.19
2018-10-21T03:14:18.433Z,82.60
2018-10-21T03:15:18.613Z,82.09
2018-10-21T03:16:18.417Z,82.60
2018-10-21T03:17:18.396Z,82.09
2018-10-21T03:18:18.479Z,81.88
2018-10-21T03:19:18.379Z,81.88
2018-10-21T03:20:18.652Z,82.19
2018-10-21T03:21:18.517Z,82.40
2018-10-21T03:22:18.346Z,82.09
2018-10-21T03:23:18.344Z,82.33
2018-10-21T03:24:18.342Z,82.60
2018-10-21T03:25:18.312Z,82.81
2018-10-21T03:26:18.303Z,82.33
2018-10-21T03:27:18.730Z,82.64
2018-10-21T03:28:18.285Z,82.23
2018-10-21T03:29:18.274Z,82.43
2018-10-21T03:30:18.265Z,82.95
2018-10-21T03:31:18.254Z,82.19
2018-10-21T03:32:18.245Z,82.54
2018-10-21T03:33:18.568Z,82.23
2018-10-21T03:34:18.522Z,82.64
2018-10-21T03:35:18.214Z,82.64
2018-10-21T03:36:18.200Z,82.64
2018-10-21T03:37:18.189Z,81.71
2018-10-21T03:38:18.181Z,81.81
2018-10-21T03:39:18.220Z,81.92
2018-10-21T03:40:18.236Z,81.20
2018-10-21T03:41:18.435Z,82.37
2018-10-21T03:42:18.139Z,82.47
2018-10-21T03:43:18.135Z,82.43
2018-10-21T03:44:18.116Z,82.43
2018-10-21T03:45:18.172Z,82.98
2018-10-21T03:46:18.174Z,82.89
2018-10-21T03:47:18.086Z,82.68
2018-10-21T03:48:18.384Z,82.78
2018-10-21T03:49:18.070Z,82.37
2018-10-21T03:50:18.056Z,82.57
2018-10-21T03:51:18.086Z,82.98
2018-10-21T03:52:18.137Z,82.57
2018-10-21T03:53:18.026Z,82.68
2018-10-21T03:54:18.011Z,82.68
2018-10-21T03:55:18.303Z,82.06
2018-10-21T03:56:18.809Z,82.16
2018-10-21T03:57:18.023Z,82.16
2018-10-21T03:58:17.975Z,82.64
2018-10-21T03:59:17.959Z,82.02
2018-10-21T04:00:17.951Z,82.37
2018-10-21T04:01:17.948Z,82.02
2018-10-21T04:02:18.028Z,82.26
2018-10-21T04:03:17.990Z,82.78
2018-10-21T04:04:18.003Z,83.54
2018-10-21T04:05:17.901Z,83.75
2018-10-21T04:06:17.883Z,83.85
2018-10-21T04:07:17.878Z,84.41
2018-10-21T04:08:18.146Z,84.81
2018-10-21T04:09:17.907Z,83.58
2018-10-21T04:10:17.937Z,83.64
2018-10-21T04:11:17.835Z,83.44
2018-10-21T04:12:17.824Z,83.44
2018-10-21T04:13:17.817Z,83.64
2018-10-21T04:14:17.802Z,83.44
2018-10-21T04:15:18.124Z,84.06
2018-10-21T04:16:17.857Z,84.06
2018-10-21T04:17:17.867Z,83.54
2018-10-21T04:18:17.759Z,83.33
2018-10-21T04:19:17.752Z,83.95
2018-10-21T04:20:17.737Z,83.23
2018-10-21T04:21:18.029Z,82.68
2018-10-21T04:22:18.002Z,82.40
2018-10-21T04:23:17.711Z,82.30
2018-10-21T04:24:17.699Z,82.30
2018-10-21T04:25:17.688Z,82.30
2018-10-21T04:26:17.680Z,82.37
2018-10-21T04:27:17.709Z,82.61
2018-10-21T04:28:17.848Z,82.30
2018-10-21T04:29:17.956Z,82.71
2018-10-21T04:30:17.633Z,82.20
2018-10-21T04:31:17.621Z,82.82
2018-10-21T04:32:17.612Z,82.51
2018-10-21T04:33:17.643Z,82.61
2018-10-21T04:34:17.636Z,82.40
2018-10-21T04:35:17.582Z,82.40
2018-10-21T04:36:17.859Z,82.51
2018-10-21T04:37:17.559Z,83.03
2018-10-21T04:38:17.547Z,82.71
2018-10-21T04:39:17.880Z,82.82
2018-10-21T04:40:17.612Z,82.61
2018-10-21T04:41:17.515Z,82.30
2018-10-21T04:42:17.504Z,83.03
2018-10-21T04:43:17.774Z,82.92
2018-10-21T04:44:17.486Z,82.61
2018-10-21T04:45:17.626Z,82.30
2018-10-21T04:46:17.599Z,81.99
2018-10-21T04:47:17.456Z,82.20
2018-10-21T04:48:17.452Z,81.99
2018-10-21T04:49:17.438Z,82.61
2018-10-21T04:50:17.719Z,82.30
2018-10-21T04:51:17.462Z,82.40
2018-10-21T04:52:17.508Z,82.10
2018-10-21T04:53:17.391Z,82.71
2018-10-21T04:54:17.382Z,82.61
2018-10-21T04:55:17.372Z,82.10
2018-10-21T04:56:17.364Z,82.10
2018-10-21T04:57:17.824Z,82.20
2018-10-21T04:58:17.554Z,82.10
2018-10-21T04:59:17.327Z,82.10
2018-10-21T05:00:17.321Z,82.40
2018-10-21T05:01:17.306Z,82.51
2018-10-21T05:02:17.294Z,82.10
2018-10-21T05:03:17.326Z,82.40
2018-10-21T05:04:17.686Z,82.14
2018-10-21T05:05:17.265Z,82.40
2018-10-21T05:06:17.255Z,82.34
2018-10-21T05:07:17.278Z,82.40
2018-10-21T05:08:17.235Z,82.14
2018-10-21T05:09:17.265Z,82.65
2018-10-21T05:10:17.285Z,83.37
2018-10-21T05:11:17.500Z,84.23
2018-10-21T05:12:17.190Z,83.89
2018-10-21T05:13:17.180Z,83.62
2018-10-21T05:14:17.173Z,84.44
2018-10-21T05:15:17.544Z,84.75
2018-10-21T05:16:17.267Z,85.52
2018-10-21T05:17:17.138Z,85.93
2018-10-21T05:18:17.603Z,85.62
2018-10-21T05:19:17.115Z,86.55
2018-10-21T05:20:17.116Z,86.79
2018-10-21T05:21:17.140Z,87.31
2018-10-21T05:22:17.835Z,87.31
2018-10-21T05:23:17.073Z,86.28
2018-10-21T05:24:17.061Z,86.86
2018-10-21T05:25:17.346Z,87.10
2018-10-21T05:26:17.041Z,86.76
2018-10-21T05:27:17.076Z,86.65
2018-10-21T05:28:17.129Z,86.86
2018-10-21T05:29:17.006Z,85.62
2018-10-21T05:30:16.996Z,85.62
2018-10-21T05:31:16.983Z,85.89
2018-10-21T05:32:16.976Z,85.47
2018-10-21T05:33:17.047Z,85.47
2018-10-21T05:34:17.004Z,85.27
2018-10-21T05:35:17.792Z,85.58
2018-10-21T05:36:17.032Z,85.47
2018-10-21T05:37:16.928Z,86.20
2018-10-21T05:38:18.082Z,85.68
2018-10-21T05:39:17.923Z,85.47
2018-10-21T05:40:16.986Z,85.58
2018-10-21T05:41:16.876Z,84.75
2018-10-21T05:42:16.878Z,84.51
2018-10-21T05:43:16.855Z,83.58
2018-10-21T05:44:16.855Z,83.78
2018-10-21T05:45:17.266Z,84.30
2018-10-21T05:46:16.895Z,83.93
2018-10-21T05:47:17.906Z,84.23
2018-10-21T05:48:16.807Z,83.68
2018-10-21T05:49:16.795Z,84.13
2018-10-21T05:50:16.787Z,83.78
2018-10-21T05:51:16.907Z,83.58
2018-10-21T05:52:17.234Z,83.78
2018-10-21T05:53:16.754Z,83.89
2018-10-21T05:54:16.744Z,83.58
2018-10-21T05:55:16.734Z,83.48
2018-10-21T05:56:16.722Z,83.48
2018-10-21T05:57:16.836Z,84.03
2018-10-21T05:58:16.766Z,83.62
2018-10-21T05:59:17.062Z,83.58
2018-10-21T06:00:16.676Z,83.89
2018-10-21T06:01:16.667Z,83.48
2018-10-21T06:02:16.654Z,83.48
2018-10-21T06:03:16.896Z,83.23
2018-10-21T06:04:16.695Z,83.17
2018-10-21T06:05:16.621Z,82.71
2018-10-21T06:06:17.109Z,82.71
2018-10-21T06:07:16.601Z,82.92
2018-10-21T06:08:16.592Z,82.61
2018-10-21T06:09:16.824Z,82.82
2018-10-21T06:10:16.741Z,83.03
2018-10-21T06:11:16.560Z,82.92
2018-10-21T06:12:16.549Z,82.92
2018-10-21T06:13:17.925Z,83.13
2018-10-21T06:14:16.527Z,82.82
2018-10-21T06:15:16.596Z,82.71
2018-10-21T06:16:16.568Z,83.33
2018-10-21T06:17:16.494Z,83.33
2018-10-21T06:18:16.491Z,83.44
2018-10-21T06:19:16.473Z,83.23
2018-10-21T06:20:16.785Z,83.29
2018-10-21T06:21:16.578Z,83.44
2018-10-21T06:22:16.522Z,83.44
2018-10-21T06:23:16.432Z,83.13
2018-10-21T06:24:16.423Z,83.95
2018-10-21T06:25:16.408Z,83.85
2018-10-21T06:26:16.396Z,83.85
2018-10-21T06:27:16.986Z,84.78
2018-10-21T06:28:16.375Z,85.64
2018-10-21T06:29:16.368Z,85.33
2018-10-21T06:30:16.353Z,84.51
2018-10-21T06:31:16.344Z,84.81
2018-10-21T06:32:16.335Z,85.37
2018-10-21T06:33:16.520Z,86.10
2018-10-21T06:34:16.898Z,85.78
2018-10-21T06:35:16.305Z,86.30
2018-10-21T06:36:16.296Z,86.88
2018-10-21T06:37:16.284Z,85.64
2018-10-21T06:38:16.271Z,86.16
2018-10-21T06:39:16.428Z,85.54
2018-10-21T06:40:16.247Z,85.64
2018-10-21T06:41:16.336Z,84.78
2018-10-21T06:42:16.228Z,84.47
2018-10-21T06:43:16.216Z,83.95
2018-10-21T06:44:16.204Z,83.61
2018-10-21T06:45:16.603Z,83.61
2018-10-21T06:46:16.743Z,83.61
2018-10-21T06:47:16.178Z,83.29
2018-10-21T06:48:16.184Z,84.12
2018-10-21T06:49:16.154Z,83.91
2018-10-21T06:50:16.184Z,83.50
2018-10-21T06:51:16.255Z,84.22
2018-10-21T06:52:16.126Z,83.61
2018-10-21T06:53:16.116Z,83.81
2018-10-21T06:54:16.127Z,83.77
2018-10-21T06:55:16.138Z,83.36
2018-10-21T06:56:16.115Z,83.26
2018-10-21T06:57:16.408Z,83.36
2018-10-21T06:58:16.343Z,83.42
2018-10-21T06:59:16.048Z,83.22
2018-10-21T07:00:16.042Z,83.05
2018-10-21T07:01:16.026Z,83.87
2018-10-21T07:02:16.016Z,83.56
2018-10-21T07:03:16.091Z,83.67
2018-10-21T07:04:16.147Z,83.67
2018-10-21T07:05:18.383Z,83.67
2018-10-21T07:06:15.974Z,83.63
2018-10-21T07:07:15.968Z,83.53
2018-10-21T07:08:15.955Z,83.73
2018-10-21T07:09:16.449Z,83.01
2018-10-21T07:10:16.179Z,83.07
2018-10-21T07:11:16.081Z,82.81
2018-10-21T07:12:17.445Z,82.56
2018-10-21T07:13:15.924Z,82.46
2018-10-21T07:14:15.931Z,81.95
2018-10-21T07:15:16.028Z,82.15
2018-10-21T07:16:15.898Z,82.05
2018-10-21T07:17:15.856Z,81.74
2018-10-21T07:18:15.850Z,82.56
2018-10-21T07:19:16.285Z,82.35
2018-10-21T07:20:15.834Z,82.46
2018-10-21T07:21:15.916Z,82.35
2018-10-21T07:22:15.872Z,81.91
2018-10-21T07:23:15.795Z,82.05
2018-10-21T07:24:15.785Z,81.60
2018-10-21T07:25:15.775Z,81.09
2018-10-21T07:26:16.098Z,81.09
2018-10-21T07:27:15.824Z,81.95
2018-10-21T07:28:15.810Z,81.91
2018-10-21T07:29:15.738Z,81.91
2018-10-21T07:30:15.731Z,80.49
2018-10-21T07:31:15.710Z,76.34
2018-10-21T07:32:16.101Z,71.66
2018-10-21T07:33:15.773Z,68.16
2018-10-21T07:34:15.782Z,66.66
2018-10-21T07:35:15.669Z,64.56
2018-10-21T07:36:15.678Z,62.33
2018-10-21T07:37:15.651Z,62.56
2018-10-21T07:38:15.642Z,63.85
2018-10-21T07:39:16.354Z,63.38
2018-10-21T07:40:15.711Z,63.00
2018-10-21T07:41:15.623Z,63.95
2018-10-21T07:42:15.609Z,67.16
2018-10-21T07:43:15.619Z,68.73
2018-10-21T07:44:15.585Z,70.87
2018-10-21T07:45:15.801Z,72.78
2018-10-21T07:46:16.799Z,74.26
2018-10-21T07:47:15.548Z,75.93
2018-10-21T07:48:15.537Z,75.73
2018-10-21T07:49:15.600Z,76.55
2018-10-21T07:50:15.511Z,77.26
2018-10-21T07:51:15.573Z,77.47
2018-10-21T07:52:15.596Z,76.75
2018-10-21T07:53:15.972Z,75.83
2018-10-21T07:54:15.477Z,77.06
2018-10-21T07:55:15.545Z,76.45
2018-10-21T07:56:15.557Z,76.41
2018-10-21T07:57:15.573Z,77.03
2018-10-21T07:58:15.538Z,77.37
2018-10-21T07:59:15.415Z,77.68
2018-10-21T08:00:15.755Z,77.03
2018-10-21T08:01:15.461Z,76.34
2018-10-21T08:02:15.380Z,76.72
2018-10-21T08:03:15.444Z,76.55
2018-10-21T08:04:15.430Z,77.44
2018-10-21T08:05:15.632Z,77.47
2018-10-21T08:06:15.347Z,76.20
2018-10-21T08:07:15.771Z,76.41
2018-10-21T08:08:15.315Z,76.51
2018-10-21T08:09:15.668Z,75.90
2018-10-21T08:10:16.338Z,75.96
2018-10-21T08:11:15.284Z,76.37
2018-10-21T08:12:15.273Z,76.00
2018-10-21T08:13:15.519Z,76.82
2018-10-21T08:14:15.588Z,76.41
2018-10-21T08:15:15.463Z,76.00
2018-10-21T08:16:32.799Z,76.00
2018-10-21T08:17:15.219Z,76.00
2018-10-21T08:18:15.209Z,76.41
2018-10-21T08:19:15.200Z,76.92
2018-10-21T08:20:15.188Z,76.62
2018-10-21T08:21:15.690Z,76.17
2018-10-21T08:22:15.260Z,75.86
2018-10-21T08:23:15.160Z,75.42
2018-10-21T08:24:15.145Z,75.82
2018-10-21T08:25:15.150Z,76.17
2018-10-21T08:26:15.811Z,76.24
2018-10-21T08:27:16.087Z,75.69
2018-10-21T08:28:15.498Z,74.90
2018-10-21T08:29:15.144Z,75.07
2018-10-21T08:30:15.084Z,74.77
2018-10-21T08:31:15.073Z,74.53
2018-10-21T08:32:15.063Z,74.22
2018-10-21T08:33:15.232Z,74.11
2018-10-21T08:34:26.584Z,74.22
2018-10-21T08:35:15.461Z,74.22
2018-10-21T08:36:15.835Z,73.61
2018-10-21T08:37:15.008Z,74.26
2018-10-21T08:38:14.998Z,74.53
2018-10-21T08:39:15.113Z,74.36
2018-10-21T08:40:15.024Z,74.73
2018-10-21T08:41:14.969Z,74.97
2018-10-21T08:42:15.287Z,74.73
2018-10-21T08:43:15.831Z,74.08
2018-10-21T08:44:14.934Z,74.08
2018-10-21T08:45:15.176Z,73.13
2018-10-21T08:46:14.997Z,73.13
2018-10-21T08:47:14.900Z,73.23
2018-10-21T08:48:15.792Z,73.06
2018-10-21T08:49:15.447Z,73.23
2018-10-21T08:50:15.791Z,73.03
2018-10-21T08:51:15.796Z,72.72
2018-10-21T08:52:15.866Z,73.47
2018-10-21T08:53:14.837Z,73.98
2018-10-21T08:54:14.827Z,74.29
2018-10-21T08:55:14.988Z,73.88
2018-10-21T08:56:15.120Z,74.39
2018-10-21T08:57:15.718Z,74.46
2018-10-21T08:58:14.860Z,74.46
2018-10-21T08:59:15.791Z,74.05
2018-10-21T09:00:14.761Z,73.94
2018-10-21T09:01:28.516Z,73.81
2018-10-21T09:02:14.785Z,74.02
2018-10-21T09:03:15.025Z,74.11
2018-10-21T09:04:14.808Z,74.02
2018-10-21T09:05:14.726Z,74.43
2018-10-21T09:06:14.719Z,73.88
2018-10-21T09:07:14.782Z,73.81
2018-10-21T09:08:14.694Z,73.77
2018-10-21T09:09:14.945Z,73.57
2018-10-21T09:10:14.777Z,74.39
2018-10-21T09:11:14.657Z,73.44
2018-10-21T09:12:14.720Z,72.92
2018-10-21T09:13:14.790Z,72.38
2018-10-21T09:14:15.188Z,72.38
2018-10-21T09:15:14.900Z,72.07
2018-10-21T09:16:15.675Z,71.94
2018-10-21T09:17:15.138Z,71.84
2018-10-21T09:18:15.417Z,72.45
2018-10-21T09:19:14.696Z,71.39
2018-10-21T09:20:14.560Z,71.29
2018-10-21T09:21:15.037Z,71.09
2018-10-21T09:22:14.606Z,71.19
2018-10-21T09:23:14.560Z,71.39
2018-10-21T09:24:14.604Z,71.39
2018-10-21T09:25:14.549Z,71.29
2018-10-21T09:26:15.487Z,71.09
2018-10-21T09:27:14.743Z,70.89
2018-10-21T09:28:15.079Z,70.95
2018-10-21T09:29:14.486Z,70.24
2018-10-21T09:30:14.455Z,70.34
2018-10-21T09:31:14.511Z,70.24
2018-10-21T09:32:14.619Z,70.34
2018-10-21T09:33:14.642Z,70.44
2018-10-21T09:34:14.472Z,70.24
2018-10-21T09:35:15.077Z,70.24
2018-10-21T09:36:14.404Z,70.31
2018-10-21T09:37:14.470Z,70.41
2018-10-21T09:38:14.410Z,69.80
2018-10-21T09:39:14.590Z,69.46
2018-10-21T09:40:14.531Z,69.15
2018-10-21T09:41:14.368Z,69.06
2018-10-21T09:42:14.961Z,69.06
2018-10-21T09:43:14.938Z,68.44
2018-10-21T09:44:14.744Z,68.51
2018-10-21T09:45:14.493Z,68.71
2018-10-21T09:46:14.390Z,68.71
2018-10-21T09:47:14.351Z,68.31
2018-10-21T09:48:14.597Z,68.41
2018-10-21T09:49:14.863Z,67.87
2018-10-21T09:50:14.514Z,68.41
2018-10-21T09:51:14.353Z,68.41
2018-10-21T09:52:14.348Z,68.21
2018-10-21T09:53:16.922Z,68.10
2018-10-21T09:54:14.900Z,67.77
2018-10-21T09:55:14.274Z,67.97
2018-10-21T09:56:14.505Z,67.74
2018-10-21T09:57:14.292Z,67.22
2018-10-21T09:58:14.326Z,67.33
2018-10-21T09:59:14.337Z,67.36
2018-10-21T10:00:14.274Z,67.83
2018-10-21T10:01:14.979Z,68.38
2018-10-21T10:02:14.914Z,67.74
2018-10-21T10:03:14.261Z,68.27
2018-10-21T10:04:14.216Z,68.24
2018-10-21T10:05:14.237Z,68.38
2018-10-21T10:06:14.199Z,68.68
2018-10-21T10:07:15.239Z,69.90
2018-10-21T10:08:14.472Z,69.80
2018-10-21T10:09:14.316Z,68.65
2018-10-21T10:10:14.246Z,68.14
2018-10-21T10:11:14.049Z,68.04
2018-10-21T10:12:14.003Z,68.24
2018-10-21T10:13:15.028Z,68.21
2018-10-21T10:14:14.110Z,67.30
2018-10-21T10:15:15.364Z,67.30
2018-10-21T10:16:14.029Z,67.30
2018-10-21T10:17:13.985Z,67.30
2018-10-21T10:18:13.956Z,66.96
2018-10-21T10:19:14.144Z,67.67
2018-10-21T10:20:13.984Z,66.72
2018-10-21T10:21:15.314Z,67.67
2018-10-21T10:22:16.516Z,67.44
2018-10-21T10:23:13.977Z,66.42
2018-10-21T10:24:14.089Z,66.32
2018-10-21T10:25:14.000Z,66.52
2018-10-21T10:26:14.921Z,66.52
2018-10-21T10:27:15.892Z,66.32
2018-10-21T10:28:14.029Z,67.03
2018-10-21T10:29:14.223Z,66.63
2018-10-21T10:30:13.956Z,67.33
2018-10-21T10:31:13.949Z,66.32
2018-10-21T10:32:14.026Z,66.42
2018-10-21T10:33:14.099Z,66.52
2018-10-21T10:34:13.918Z,67.67
2018-10-21T10:35:13.929Z,67.24
2018-10-21T10:36:13.872Z,65.41
2018-10-21T10:37:14.036Z,65.51
2018-10-21T10:38:14.155Z,66.39
2018-10-21T10:39:13.847Z,65.78
2018-10-21T10:40:15.556Z,65.95
2018-10-21T10:41:14.320Z,66.49
2018-10-21T10:42:14.082Z,66.39
2018-10-21T10:43:13.731Z,66.19
2018-10-21T10:44:13.681Z,65.68
2018-10-21T10:45:15.376Z,65.78
2018-10-21T10:46:13.960Z,66.08
2018-10-21T10:47:13.882Z,65.78
2018-10-21T10:48:14.153Z,66.29
2018-10-21T10:49:15.956Z,65.95
2018-10-21T10:50:15.572Z,65.75
2018-10-21T10:51:14.363Z,65.72
2018-10-21T10:52:13.719Z,65.34
2018-10-21T10:53:13.705Z,64.70
2018-10-21T10:54:14.418Z,65.24
2018-10-21T10:55:14.735Z,66.05
2018-10-21T10:56:14.343Z,65.34
2018-10-21T10:57:13.870Z,65.04
2018-10-21T10:58:13.556Z,64.64
2018-10-21T10:59:13.715Z,65.24
2018-10-21T11:00:14.224Z,64.81
2018-10-21T11:01:13.769Z,64.20
2018-10-21T11:02:13.627Z,64.70
2018-10-21T11:03:13.775Z,64.20
2018-10-21T11:04:13.652Z,64.67
2018-10-21T11:05:13.570Z,63.96
2018-10-21T11:06:13.574Z,63.23
2018-10-21T11:07:14.040Z,63.20
2018-10-21T11:08:13.598Z,62.08
2018-10-21T11:09:13.701Z,61.35
2018-10-21T11:10:15.101Z,60.38
2018-10-21T11:11:13.480Z,58.07
2018-10-21T11:12:14.052Z,56.90
2018-10-21T11:13:13.649Z,53.67
2018-10-21T11:14:13.816Z,50.59
2018-10-21T11:15:15.366Z,47.43
2018-10-21T11:16:13.737Z,46.00
2018-10-21T11:17:13.330Z,42.77
2018-10-21T11:18:13.484Z,39.29
2018-10-21T11:19:15.887Z,39.96
2018-10-21T11:20:14.357Z,39.64
2018-10-21T11:21:13.719Z,41.22
2018-10-21T11:22:15.098Z,41.85
2018-10-21T11:23:13.391Z,41.93
2018-10-21T11:24:13.273Z,41.19
2018-10-21T11:25:13.677Z,39.84
2018-10-21T11:26:13.230Z,40.32
2018-10-21T11:27:13.947Z,38.03
2018-10-21T11:28:15.393Z,38.03
2018-10-21T11:29:13.293Z,39.92
2018-10-21T11:30:14.422Z,39.60
2018-10-21T11:31:14.914Z,38.43
2018-10-21T11:32:14.033Z,36.33
2018-10-21T11:33:21.846Z,34.33
2018-10-21T11:34:14.458Z,35.34
2018-10-21T11:35:15.357Z,37.95
2018-10-21T11:36:13.931Z,37.93
2018-10-21T11:37:19.257Z,35.64
2018-10-21T11:38:14.395Z,33.36
2018-10-21T11:39:14.701Z,32.07
2018-10-21T11:40:13.525Z,30.88
2018-10-21T11:42:01.800Z,32.15
2018-10-21T11:42:19.403Z,31.85
2018-10-21T11:43:16.068Z,32.55
2018-10-21T11:44:25.893Z,32.34
2018-10-21T11:45:17.453Z,31.30
2018-10-21T11:46:32.989Z,31.84
2018-10-21T11:48:24.328Z,32.81
2018-10-21T11:49:23.868Z,32.70
2018-10-21T11:50:23.857Z,32.06
2018-10-21T11:51:23.721Z,33.31
2018-10-21T11:52:24.697Z,32.45
2018-10-21T11:57:17.859Z,30.04
2018-10-21T11:58:18.020Z,32.55
2018-10-21T11:59:17.877Z,32.50
2018-10-21T12:00:17.906Z,32.17
2018-10-21T12:01:17.274Z,31.53
2018-10-21T12:02:16.891Z,29.79
2018-10-21T12:03:17.278Z,27.59
2018-10-21T12:04:16.951Z,29.23
2018-10-21T12:05:17.719Z,29.85
2018-10-21T12:06:17.722Z,29.95
2018-10-21T12:07:16.959Z,29.66
2018-10-21T12:08:16.866Z,31.10
2018-10-21T12:09:17.688Z,31.97
2018-10-21T12:10:16.898Z,31.90
2018-10-21T12:11:17.732Z,32.93
2018-10-21T12:12:16.787Z,32.53
2018-10-21T12:13:18.755Z,32.50
2018-10-21T12:14:16.764Z,32.20
2018-10-21T12:15:17.757Z,33.11
2018-10-21T12:16:17.336Z,32.81
2018-10-21T12:17:16.747Z,32.40
2018-10-21T12:18:16.784Z,31.84
2018-10-21T12:19:16.865Z,32.40
2018-10-21T12:20:16.761Z,32.79
2018-10-21T12:21:17.755Z,32.00
2018-10-21T12:22:16.803Z,33.24
2018-10-21T12:23:17.147Z,35.29
2018-10-21T12:24:17.753Z,37.38
2018-10-21T12:25:16.947Z,40.01
2018-10-21T12:26:17.730Z,41.89
2018-10-21T12:27:17.149Z,44.48
2018-10-21T12:28:17.871Z,46.06
2018-10-21T12:29:17.830Z,46.70
2018-10-21T12:30:17.327Z,47.00
2018-10-21T12:31:16.710Z,47.11
2018-10-21T12:32:16.581Z,47.08
2018-10-21T12:33:16.715Z,46.38
2018-10-21T12:34:16.685Z,46.38
2018-10-21T12:35:16.719Z,47.31
2018-10-21T12:36:16.610Z,47.03
2018-10-21T12:37:17.049Z,47.35
2018-10-21T12:38:16.603Z,48.49
2018-10-21T12:39:16.852Z,48.30
2018-10-21T12:40:16.761Z,48.21
2018-10-21T12:41:17.570Z,48.91
2018-10-21T12:42:16.637Z,48.10
2018-10-21T12:43:16.713Z,49.46
2018-10-21T12:44:16.871Z,49.26
2018-10-21T12:45:17.000Z,49.64
2018-10-21T12:46:16.697Z,48.93
2018-10-21T12:47:16.575Z,49.36
2018-10-21T12:48:16.421Z,49.64
2018-10-21T12:49:17.274Z,48.50
2018-10-21T12:50:16.385Z,48.81
2018-10-21T12:51:17.043Z,48.71
2018-10-21T12:52:16.544Z,47.38
2018-10-21T12:53:16.681Z,48.10
2018-10-21T12:54:17.825Z,48.38
2018-10-21T12:55:16.426Z,48.26
2018-10-21T12:56:16.762Z,47.66
2018-10-21T12:57:17.599Z,46.85
2018-10-21T12:58:16.885Z,47.38
2018-10-21T12:59:16.479Z,47.19